createdAt,value
2023-03-31T00:01:26.954Z,31.02
2023-03-31T00:05:27.339Z,30.94
2023-03-31T00:09:26.969Z,30.95
2023-03-31T00:13:26.955Z,30.96
2023-03-31T00:17:27.394Z,30.88
2023-03-31T00:21:26.940Z,30.92
2023-03-31T00:25:27.358Z,30.87
2023-03-31T00:29:27.040Z,30.85
2023-03-31T00:33:27.013Z,30.85
2023-03-31T00:37:27.396Z,30.85
2023-03-31T00:41:27.342Z,30.81
2023-03-31T00:45:27.050Z,30.80
2023-03-31T00:49:27.015Z,30.81
2023-03-31T00:53:27.378Z,30.78
2023-03-31T00:57:27.509Z,30.77
2023-03-31T01:01:27.020Z,30.76
2023-03-31T01:05:27.357Z,30.80
2023-03-31T01:09:26.899Z,30.74
2023-03-31T01:13:26.903Z,30.77
2023-03-31T01:17:27.587Z,30.72
2023-03-31T01:21:26.866Z,30.73
2023-03-31T01:25:26.904Z,30.72
2023-03-31T01:29:26.827Z,30.69
2023-03-31T01:33:26.858Z,30.69
2023-03-31T01:37:26.863Z,30.67
2023-03-31T01:41:26.887Z,30.64
2023-03-31T01:45:26.889Z,30.64
2023-03-31T01:49:26.718Z,30.67
2023-03-31T01:53:26.896Z,30.58
2023-03-31T01:57:26.749Z,30.64
2023-03-31T02:01:26.752Z,30.60
2023-03-31T02:05:26.674Z,30.60
2023-03-31T02:09:26.635Z,30.60
2023-03-31T02:13:26.678Z,30.62
2023-03-31T02:17:26.918Z,30.61
2023-03-31T02:21:26.894Z,30.60
2023-03-31T02:25:26.619Z,30.56
2023-03-31T02:29:26.908Z,30.53
2023-03-31T02:33:26.919Z,30.54
2023-03-31T02:37:26.921Z,30.55
2023-03-31T02:41:26.557Z,30.53
2023-03-31T02:45:26.573Z,30.50
2023-03-31T02:49:26.568Z,30.51
2023-03-31T02:53:26.915Z,30.49
2023-03-31T02:57:26.973Z,30.48
2023-03-31T03:01:26.954Z,30.46
2023-03-31T03:05:26.530Z,30.46
2023-03-31T03:09:26.514Z,30.48
2023-03-31T03:13:26.925Z,30.46
2023-03-31T03:17:26.993Z,30.38
2023-03-31T03:21:26.954Z,30.41
2023-03-31T03:25:26.482Z,30.39
2023-03-31T03:29:26.962Z,30.41
2023-03-31T03:33:26.919Z,30.41
2023-03-31T03:37:26.916Z,30.41
2023-03-31T03:41:26.989Z,30.36
2023-03-31T03:45:26.418Z,30.38
2023-03-31T03:49:26.438Z,30.41
2023-03-31T03:53:26.413Z,30.33
2023-03-31T03:57:26.550Z,30.35
2023-03-31T04:01:26.318Z,30.32
2023-03-31T04:05:26.495Z,30.33
2023-03-31T04:09:26.431Z,30.31
2023-03-31T04:13:26.425Z,30.30
2023-03-31T04:17:26.467Z,30.31
2023-03-31T04:21:26.365Z,30.31
2023-03-31T04:25:26.427Z,30.29
2023-03-31T04:29:26.422Z,30.27
2023-03-31T04:33:26.384Z,30.25
2023-03-31T04:37:26.448Z,30.26
2023-03-31T04:41:26.371Z,30.27
2023-03-31T04:45:26.482Z,30.26
2023-03-31T04:49:26.445Z,30.19
2023-03-31T04:53:26.427Z,30.18
2023-03-31T04:57:26.486Z,30.19
2023-03-31T05:01:26.460Z,30.20
2023-03-31T05:05:26.470Z,30.17
2023-03-31T05:09:26.434Z,30.23
2023-03-31T05:13:26.486Z,30.20
2023-03-31T05:17:26.478Z,30.18
2023-03-31T05:21:26.409Z,30.15
2023-03-31T05:25:26.478Z,30.13
2023-03-31T05:29:26.420Z,30.17
2023-03-31T05:33:26.504Z,30.11
2023-03-31T05:37:26.436Z,30.11
2023-03-31T05:41:26.486Z,30.11
2023-03-31T05:45:26.483Z,30.12
2023-03-31T05:49:26.478Z,30.23
2023-03-31T05:53:26.490Z,31.20
2023-03-31T05:57:26.508Z,32.66
2023-03-31T06:01:26.522Z,33.92
2023-03-31T06:05:26.487Z,32.59
2023-03-31T06:09:26.353Z,33.15
2023-03-31T06:13:26.524Z,33.39
2023-03-31T06:17:26.267Z,33.07
2023-03-31T06:21:26.487Z,33.26
2023-03-31T06:25:26.658Z,33.22
2023-03-31T06:29:26.501Z,32.48
2023-03-31T06:33:26.526Z,32.19
2023-03-31T06:37:26.068Z,31.94
2023-03-31T06:41:26.512Z,32.29
2023-03-31T06:45:26.511Z,32.04
2023-03-31T06:49:26.016Z,33.49
2023-03-31T06:53:26.524Z,34.26
2023-03-31T06:57:25.936Z,33.88
2023-03-31T07:01:25.957Z,33.61
2023-03-31T07:05:26.014Z,33.31
2023-03-31T07:09:26.505Z,33.09
2023-03-31T07:13:26.569Z,32.96
2023-03-31T07:17:26.157Z,32.88
2023-03-31T07:21:26.530Z,32.57
2023-03-31T07:25:26.507Z,32.45
2023-03-31T07:29:26.518Z,32.39
2023-03-31T07:33:26.027Z,32.35
2023-03-31T07:37:25.985Z,32.37
2023-03-31T07:41:26.017Z,32.39
2023-03-31T07:45:26.083Z,32.52
2023-03-31T07:49:26.041Z,35.17
2023-03-31T07:53:25.786Z,34.95
2023-03-31T07:57:26.150Z,36.24
2023-03-31T08:01:25.745Z,36.13
2023-03-31T08:05:26.051Z,35.83
2023-03-31T08:09:26.033Z,35.57
2023-03-31T08:13:25.644Z,35.07
2023-03-31T08:17:25.632Z,31.84
2023-03-31T08:21:25.562Z,31.78
2023-03-31T08:25:25.552Z,32.60
2023-03-31T08:29:25.523Z,33.71
2023-03-31T08:33:25.443Z,34.48
2023-03-31T08:37:25.547Z,34.92
2023-03-31T08:41:26.099Z,35.28
2023-03-31T08:45:26.064Z,35.65
2023-03-31T08:49:26.033Z,36.26
2023-03-31T08:53:26.062Z,36.43
2023-03-31T08:57:26.668Z,36.04
2023-03-31T09:01:26.391Z,35.57
2023-03-31T09:05:27.070Z,35.18
2023-03-31T09:09:26.892Z,34.87
2023-03-31T09:13:27.069Z,34.54
2023-03-31T09:17:27.074Z,34.33
2023-03-31T09:21:27.077Z,34.06
2023-03-31T09:25:27.063Z,33.89
2023-03-31T09:29:26.575Z,33.73
2023-03-31T09:33:26.594Z,33.71
2023-03-31T09:37:26.578Z,33.63
2023-03-31T09:41:26.561Z,33.54
2023-03-31T09:45:26.595Z,33.39
2023-03-31T09:49:26.425Z,33.56
2023-03-31T09:53:26.586Z,34.70
2023-03-31T09:57:27.233Z,35.87
2023-03-31T10:01:26.674Z,36.85
2023-03-31T10:05:27.116Z,38.63
2023-03-31T10:09:26.692Z,38.51
2023-03-31T10:13:27.090Z,39.20
2023-03-31T10:17:27.135Z,39.70
2023-03-31T10:21:27.120Z,39.94
2023-03-31T10:25:27.115Z,40.02
2023-03-31T10:29:26.647Z,40.36
2023-03-31T10:33:27.142Z,40.68
2023-03-31T10:37:27.103Z,40.95
2023-03-31T10:41:27.155Z,41.49
2023-03-31T10:45:36.407Z,41.38
2023-03-31T10:49:27.835Z,40.77
2023-03-31T10:53:26.903Z,40.35
2023-03-31T10:57:27.289Z,39.97
2023-03-31T11:01:27.014Z,39.61
2023-03-31T11:05:27.022Z,39.36
2023-03-31T11:09:27.120Z,38.98
2023-03-31T11:13:27.168Z,38.78
2023-03-31T11:17:27.753Z,38.63
2023-03-31T11:21:27.607Z,38.38
2023-03-31T11:25:27.589Z,38.16
2023-03-31T11:29:28.109Z,38.17
2023-03-31T11:33:27.991Z,37.96
2023-03-31T11:37:28.089Z,37.80
2023-03-31T11:41:28.113Z,37.63
2023-03-31T11:45:27.888Z,37.51
2023-03-31T11:49:28.133Z,37.41
2023-03-31T11:53:28.132Z,37.28
2023-03-31T11:57:28.338Z,37.18
2023-03-31T12:01:27.755Z,37.08
2023-03-31T12:05:27.674Z,36.98
2023-03-31T12:09:28.157Z,36.96
2023-03-31T12:13:27.619Z,36.87
2023-03-31T12:17:28.142Z,36.81
2023-03-31T12:21:27.786Z,36.73
2023-03-31T12:25:28.169Z,36.60
2023-03-31T12:29:27.862Z,36.51
2023-03-31T12:33:28.111Z,36.42
2023-03-31T12:37:28.137Z,36.32
2023-03-31T12:41:27.874Z,36.21
2023-03-31T12:45:28.127Z,36.14
2023-03-31T12:49:28.139Z,36.07
2023-03-31T12:53:27.825Z,36.01
2023-03-31T12:57:28.313Z,35.94
2023-03-31T13:01:34.958Z,35.91
2023-03-31T13:05:28.177Z,35.82
2023-03-31T13:09:28.190Z,35.82
2023-03-31T13:13:28.192Z,35.74
2023-03-31T13:17:28.239Z,35.73
2023-03-31T13:21:27.623Z,35.67
2023-03-31T13:25:27.609Z,35.65
2023-03-31T13:29:27.720Z,35.60
2023-03-31T13:33:27.676Z,35.55
2023-03-31T13:37:27.690Z,35.55
2023-03-31T13:41:27.454Z,35.44
2023-03-31T13:45:27.741Z,35.40
2023-03-31T13:49:27.401Z,35.39
2023-03-31T13:53:27.714Z,35.33
2023-03-31T13:57:27.741Z,35.33
2023-03-31T14:01:27.299Z,35.27
2023-03-31T14:05:27.239Z,35.24
2023-03-31T14:09:27.714Z,35.16
2023-03-31T14:13:27.723Z,35.13
2023-03-31T14:17:27.308Z,35.13
2023-03-31T14:21:27.686Z,35.03
2023-03-31T14:25:27.516Z,35.05
2023-03-31T14:29:27.675Z,35.01
2023-03-31T14:33:27.736Z,34.98
2023-03-31T14:37:27.794Z,34.92
2023-03-31T14:41:28.209Z,34.88
2023-03-31T14:45:28.108Z,34.85
2023-03-31T14:49:28.243Z,34.83
2023-03-31T14:53:28.708Z,34.72
2023-03-31T14:57:28.570Z,34.71
2023-03-31T15:01:28.788Z,34.67
2023-03-31T15:05:29.219Z,34.60
2023-03-31T15:09:29.237Z,34.52
2023-03-31T15:13:29.228Z,34.41
2023-03-31T15:17:29.017Z,34.36
2023-03-31T15:21:29.211Z,34.38
2023-03-31T15:25:29.204Z,34.32
2023-03-31T15:29:29.728Z,34.30
2023-03-31T15:33:29.743Z,34.27
2023-03-31T15:37:29.570Z,34.19
2023-03-31T15:41:29.755Z,34.12
2023-03-31T15:45:30.257Z,34.09
2023-03-31T15:49:29.863Z,34.13
2023-03-31T15:53:30.251Z,34.09
2023-03-31T15:57:30.269Z,34.04
2023-03-31T16:01:30.254Z,34.09
2023-03-31T16:05:34.480Z,34.01
2023-03-31T16:09:31.717Z,33.95
2023-03-31T16:13:30.712Z,33.95
2023-03-31T16:17:30.468Z,33.96
2023-03-31T16:21:30.757Z,33.93
2023-03-31T16:25:30.740Z,33.91
2023-03-31T16:29:31.263Z,33.85
2023-03-31T16:33:31.050Z,33.86
2023-03-31T16:37:31.288Z,33.89
2023-03-31T16:41:31.362Z,33.82
2023-03-31T16:45:31.755Z,33.81
2023-03-31T16:49:31.709Z,33.81
2023-03-31T16:53:31.796Z,33.77
2023-03-31T16:57:32.337Z,33.75
2023-03-31T17:01:32.246Z,33.72
2023-03-31T17:05:33.013Z,33.71
2023-03-31T17:09:32.543Z,33.67
2023-03-31T17:13:32.666Z,33.63
2023-03-31T17:17:33.590Z,33.62
2023-03-31T17:21:33.279Z,33.62
2023-03-31T17:25:33.269Z,33.59
2023-03-31T17:29:33.812Z,33.63
2023-03-31T17:33:33.574Z,33.56
2023-03-31T17:37:33.792Z,33.58
2023-03-31T17:41:34.237Z,33.54
2023-03-31T17:45:34.285Z,33.54
2023-03-31T17:49:34.328Z,33.51
2023-03-31T17:53:34.761Z,33.48
2023-03-31T17:57:34.818Z,33.48
2023-03-31T18:01:34.988Z,33.48
2023-03-31T18:05:35.284Z,33.47
2023-03-31T18:09:35.328Z,33.47
2023-03-31T18:13:35.800Z,33.41
2023-03-31T18:17:35.804Z,33.39
2023-03-31T18:21:36.293Z,33.35
2023-03-31T18:25:36.550Z,33.35
2023-03-31T18:29:36.171Z,33.68
2023-03-31T18:33:36.341Z,33.94
2023-03-31T18:37:36.281Z,34.61
2023-03-31T18:41:36.275Z,35.05
2023-03-31T18:45:36.492Z,35.78
2023-03-31T18:49:35.948Z,35.79
2023-03-31T18:53:36.293Z,35.59
2023-03-31T18:57:35.893Z,35.44
2023-03-31T19:01:35.884Z,36.29
2023-03-31T19:05:36.295Z,36.05
2023-03-31T19:09:35.780Z,35.94
2023-03-31T19:13:35.809Z,35.59
2023-03-31T19:17:35.851Z,35.78
2023-03-31T19:21:35.818Z,35.64
2023-03-31T19:25:35.615Z,35.30
2023-03-31T19:29:35.828Z,35.35
2023-03-31T19:33:35.581Z,35.73
2023-03-31T19:37:35.838Z,35.67
2023-03-31T19:41:35.852Z,35.59
2023-03-31T19:45:35.497Z,35.32
2023-03-31T19:49:35.834Z,35.23
2023-03-31T19:53:35.862Z,35.08
2023-03-31T19:57:35.385Z,34.92
2023-03-31T20:01:35.445Z,34.85
2023-03-31T20:05:35.273Z,34.74
2023-03-31T20:09:35.356Z,34.74
2023-03-31T20:13:35.318Z,34.65
2023-03-31T20:17:35.232Z,34.57
2023-03-31T20:21:35.362Z,34.46
2023-03-31T20:25:35.112Z,34.49
2023-03-31T20:29:35.316Z,34.52
2023-03-31T20:33:35.044Z,34.50
2023-03-31T20:37:35.346Z,34.44
2023-03-31T20:41:35.326Z,34.38
2023-03-31T20:45:34.949Z,34.33
2023-03-31T20:49:35.339Z,34.37
2023-03-31T20:53:34.897Z,34.31
2023-03-31T20:57:35.367Z,34.32
2023-03-31T21:01:35.087Z,34.28
2023-03-31T21:05:35.324Z,34.27
2023-03-31T21:09:35.364Z,34.24
2023-03-31T21:13:35.844Z,34.22
2023-03-31T21:17:35.890Z,34.17
2023-03-31T21:21:35.881Z,34.14
2023-03-31T21:25:35.962Z,34.09
2023-03-31T21:29:36.362Z,34.09
2023-03-31T21:33:36.289Z,34.05
2023-03-31T21:37:36.854Z,34.04
2023-03-31T21:41:36.608Z,34.03
2023-03-31T21:45:36.846Z,33.97
2023-03-31T21:49:36.947Z,33.94
2023-03-31T21:53:37.381Z,33.89
2023-03-31T21:57:37.387Z,33.89
2023-03-31T22:01:37.745Z,33.87
2023-03-31T22:05:37.885Z,33.83
2023-03-31T22:09:37.865Z,33.81
2023-03-31T22:13:38.357Z,33.81
2023-03-31T22:17:38.415Z,33.78
2023-03-31T22:21:38.479Z,33.73
2023-03-31T22:25:38.649Z,33.71
2023-03-31T22:29:38.880Z,33.66
2023-03-31T22:33:39.066Z,33.67
2023-03-31T22:37:39.298Z,33.61
2023-03-31T22:41:39.894Z,33.59
2023-03-31T22:45:39.885Z,33.58
2023-03-31T22:49:40.872Z,33.51
2023-03-31T22:53:40.121Z,33.56
2023-03-31T22:57:40.322Z,33.47
2023-03-31T23:01:40.897Z,33.46
2023-03-31T23:05:40.885Z,33.39
2023-03-31T23:09:40.960Z,33.40
2023-03-31T23:13:41.401Z,33.40
2023-03-31T23:17:41.400Z,33.42
2023-03-31T23:21:41.884Z,33.36
2023-03-31T23:25:41.886Z,33.34
2023-03-31T23:29:41.870Z,33.30
2023-03-31T23:33:41.504Z,33.24
2023-03-31T23:37:41.456Z,33.24
2023-03-31T23:41:41.425Z,33.25
2023-03-31T23:45:41.389Z,33.20
2023-03-31T23:49:41.327Z,33.19
2023-03-31T23:53:41.382Z,33.17
2023-03-31T23:57:41.279Z,33.12
